Time;durP1;ratioP1;P1;durP2;ratioP2;P2;SDS_P1;SDS_P2;PMS_P1;PMS_P2;Temp;Humidity;BMP_temperature;BMP_pressure;BME280_temperature;BME280_humidity;BME280_pressure;Samples;Min_cycle;Max_cycle;Signal;HPM_P1;HPM_P2
2021/12/29 00:01:21;;;;;;;33.85;19.42;;;7.30;99.90;;;;;;5040880;28;20282;-82
2021/12/29 00:03:48;;;;;;;24.48;16.80;;;7.20;99.90;;;;;;5034408;28;20290;-82
2021/12/29 00:06:15;;;;;;;45.22;19.95;;;7.20;99.90;;;;;;5034135;28;20235;-82
2021/12/29 00:08:43;;;;;;;33.42;18.80;;;7.10;99.90;;;;;;5033489;28;20255;-82
2021/12/29 00:11:10;;;;;;;36.22;20.05;;;7.00;99.90;;;;;;5032124;28;20222;-82
2021/12/29 00:13:37;;;;;;;35.75;18.48;;;7.10;99.90;;;;;;5031449;28;20290;-82
2021/12/29 00:16:10;;;;;;;35.78;18.40;;;7.00;99.90;;;;;;5029907;28;20233;-83
2021/12/29 00:18:37;;;;;;;32.00;17.92;;;6.90;99.90;;;;;;5032758;28;20189;-83
2021/12/29 00:21:07;;;;;;;45.30;21.90;;;7.00;99.90;;;;;;5028142;28;20235;-82
2021/12/29 00:23:33;;;;;;;33.30;17.42;;;7.00;99.90;;;;;;5027481;28;20733;-82
2021/12/29 00:26:02;;;;;;;42.33;21.33;;;7.00;99.90;;;;;;5031265;28;20308;-82
2021/12/29 00:28:29;;;;;;;32.67;17.75;;;6.90;99.90;;;;;;5046177;28;20230;-82
2021/12/29 00:30:56;;;;;;;40.67;19.67;;;6.80;99.90;;;;;;5037824;28;21475;-82
2021/12/29 00:33:23;;;;;;;33.10;18.38;;;6.80;99.90;;;;;;5032730;28;20215;-82
2021/12/29 00:35:50;;;;;;;34.58;19.13;;;6.80;99.90;;;;;;5029061;28;20705;-83
2021/12/29 00:38:17;;;;;;;44.25;19.48;;;6.80;99.90;;;;;;5027335;28;20211;-82
2021/12/29 00:40:44;;;;;;;40.08;19.25;;;6.80;99.90;;;;;;5026898;28;20236;-80
2021/12/29 00:43:12;;;;;;;31.60;20.55;;;6.80;99.90;;;;;;5027904;28;20210;-82
2021/12/29 00:45:40;;;;;;;33.78;17.02;;;6.80;99.90;;;;;;5026967;28;20230;-82
2021/12/29 00:48:11;;;;;;;42.95;21.35;;;6.80;99.90;;;;;;5026245;28;20238;-82
2021/12/29 00:50:39;;;;;;;38.58;20.65;;;6.90;99.90;;;;;;5027146;28;20227;-81
2021/12/29 00:53:08;;;;;;;41.70;21.48;;;6.90;99.90;;;;;;5027928;28;20234;-82
2021/12/29 00:55:35;;;;;;;30.10;20.23;;;7.00;99.90;;;;;;5027745;28;20235;-82
2021/12/29 00:58:02;;;;;;;30.42;20.90;;;7.00;99.90;;;;;;5034248;28;20214;-82
2021/12/29 01:00:32;;;;;;;37.72;19.63;;;7.00;99.90;;;;;;5029093;28;20254;-82
2021/12/29 01:02:58;;;;;;;36.35;22.50;;;7.10;99.90;;;;;;5033681;28;20188;-82
2021/12/29 01:05:26;;;;;;;29.48;19.92;;;7.10;99.90;;;;;;5031436;28;20228;-81
2021/12/29 01:07:53;;;;;;;29.45;18.13;;;7.10;99.90;;;;;;5027790;28;20205;-81
2021/12/29 01:10:20;;;;;;;36.80;20.15;;;7.10;99.90;;;;;;5027126;28;20211;-82
2021/12/29 01:12:53;;;;;;;40.80;21.45;;;7.10;99.90;;;;;;5031591;28;20241;-81
2021/12/29 01:15:25;;;;;;;31.80;20.10;;;7.10;99.90;;;;;;5035049;28;20287;-82
2021/12/29 01:17:56;;;;;;;41.88;19.15;;;7.10;99.90;;;;;;5030438;28;20223;-82
2021/12/29 01:20:23;;;;;;;29.60;19.27;;;7.10;99.90;;;;;;5024453;28;20266;-82
2021/12/29 01:22:51;;;;;;;34.60;19.65;;;7.10;99.90;;;;;;5024406;28;20244;-82
2021/12/29 01:25:18;;;;;;;37.78;20.83;;;7.20;99.90;;;;;;5024885;28;20659;-81
2021/12/29 01:27:45;;;;;;;28.50;17.63;;;7.20;99.90;;;;;;5019560;28;20284;-81
2021/12/29 01:30:12;;;;;;;31.83;20.23;;;7.20;99.90;;;;;;5036524;28;20223;-82
2021/12/29 01:32:41;;;;;;;29.25;20.23;;;7.20;99.90;;;;;;5034074;28;20222;-82
2021/12/29 01:35:12;;;;;;;38.45;20.23;;;7.20;99.90;;;;;;5024177;28;20226;-82
2021/12/29 01:37:39;;;;;;;40.20;19.70;;;7.20;99.90;;;;;;5024855;28;20204;-82
2021/12/29 01:40:10;;;;;;;34.08;19.38;;;7.10;99.90;;;;;;5025391;28;20231;-82
2021/12/29 01:42:37;;;;;;;39.03;20.23;;;7.10;99.90;;;;;;5037506;28;20184;-82
2021/12/29 01:45:05;;;;;;;35.22;20.83;;;7.10;99.90;;;;;;5034477;28;20315;-83
2021/12/29 01:47:33;;;;;;;31.90;19.77;;;7.10;99.90;;;;;;5022699;28;20211;-81
2021/12/29 01:50:01;;;;;;;30.05;21.20;;;7.20;99.90;;;;;;5023164;28;20208;-81
2021/12/29 01:52:35;;;;;;;27.30;19.05;;;7.30;99.90;;;;;;5022904;28;20216;-82
2021/12/29 01:55:02;;;;;;;37.53;21.98;;;7.40;99.90;;;;;;5021816;28;20228;-82
2021/12/29 01:57:29;;;;;;;36.03;21.95;;;7.40;99.90;;;;;;5021511;28;20236;-83
2021/12/29 01:59:55;;;;;;;34.28;20.52;;;7.40;99.90;;;;;;5024339;28;20205;-81
2021/12/29 02:02:23;;;;;;;38.92;20.13;;;7.30;99.90;;;;;;5028662;28;20211;-81
2021/12/29 02:04:49;;;;;;;38.85;21.00;;;7.40;99.90;;;;;;5019988;28;20228;-82
2021/12/29 02:07:16;;;;;;;47.72;23.05;;;7.30;99.90;;;;;;5019578;28;20295;-82
2021/12/29 02:09:45;;;;;;;34.03;21.50;;;7.20;99.90;;;;;;5024414;28;20238;-81
2021/12/29 02:12:12;;;;;;;35.03;21.42;;;7.10;99.90;;;;;;5023927;28;20211;-82
2021/12/29 02:14:38;;;;;;;36.10;20.85;;;7.10;99.90;;;;;;5021080;28;20713;-81
2021/12/29 02:17:05;;;;;;;44.95;24.55;;;7.10;99.90;;;;;;5020626;28;20559;-82
2021/12/29 02:19:32;;;;;;;38.50;22.20;;;7.00;99.90;;;;;;5025708;28;20234;-81
2021/12/29 02:22:07;;;;;;;36.00;23.92;;;6.90;99.90;;;;;;5032955;28;20226;-82
2021/12/29 02:24:38;;;;;;;41.03;23.75;;;7.00;99.90;;;;;;5032390;28;20227;-82
2021/12/29 02:27:06;;;;;;;45.92;23.60;;;7.00;99.90;;;;;;5024273;28;20213;-82
2021/12/29 02:29:34;;;;;;;35.75;20.77;;;7.00;99.90;;;;;;5030422;28;20626;-82
2021/12/29 02:32:01;;;;;;;48.53;22.08;;;7.00;99.90;;;;;;5022813;28;20200;-82
2021/12/29 02:34:28;;;;;;;36.22;23.55;;;7.20;99.90;;;;;;5022988;28;20657;-82
2021/12/29 02:36:57;;;;;;;44.30;23.85;;;7.00;99.90;;;;;;5021682;28;20580;-82
2021/12/29 02:39:26;;;;;;;37.33;24.73;;;7.00;99.90;;;;;;5019556;28;20396;-82
2021/12/29 02:41:54;;;;;;;41.42;24.17;;;7.00;99.90;;;;;;5019466;28;20219;-82
2021/12/29 02:44:27;;;;;;;41.22;24.45;;;7.10;99.90;;;;;;5020389;28;20629;-83
2021/12/29 02:46:56;;;;;;;39.88;23.52;;;7.10;99.90;;;;;;5021173;28;20204;-82
2021/12/29 02:49:24;;;;;;;37.97;22.25;;;7.10;99.90;;;;;;5028186;28;20207;-82
2021/12/29 02:51:52;;;;;;;47.83;25.42;;;7.10;99.90;;;;;;5033193;28;20275;-82
2021/12/29 02:54:19;;;;;;;52.53;27.83;;;7.10;99.90;;;;;;5024846;28;20227;-82
2021/12/29 02:56:49;;;;;;;62.17;28.17;;;7.10;99.90;;;;;;5024007;28;20199;-82
2021/12/29 02:59:16;;;;;;;61.55;28.05;;;7.10;99.90;;;;;;5020665;28;20206;-82
2021/12/29 03:01:43;;;;;;;45.30;23.08;;;7.00;99.90;;;;;;5027017;28;20225;-82
2021/12/29 03:04:11;;;;;;;47.40;27.42;;;7.10;99.90;;;;;;5019839;28;20712;-82
2021/12/29 03:06:39;;;;;;;48.05;27.67;;;7.10;99.90;;;;;;5020373;28;20210;-82
2021/12/29 03:09:08;;;;;;;70.97;34.08;;;7.00;99.90;;;;;;5020876;28;20223;-82
2021/12/29 03:11:36;;;;;;;65.25;33.58;;;6.90;99.90;;;;;;5028685;28;20291;-82
2021/12/29 03:14:06;;;;;;;51.67;28.98;;;7.00;99.90;;;;;;5028200;28;20276;-81
2021/12/29 03:16:33;;;;;;;69.22;34.00;;;7.00;99.90;;;;;;5028564;28;20267;-81
2021/12/29 03:19:02;;;;;;;65.82;31.80;;;7.00;99.90;;;;;;5024391;28;20270;-82
2021/12/29 03:21:29;;;;;;;64.97;32.65;;;7.00;99.90;;;;;;5020370;28;20223;-81
2021/12/29 03:23:56;;;;;;;72.20;32.42;;;7.00;99.90;;;;;;5020397;28;20205;-82
2021/12/29 03:26:23;;;;;;;71.47;35.20;;;7.00;99.90;;;;;;5027153;28;20272;-81
2021/12/29 03:28:51;;;;;;;53.28;30.10;;;7.00;99.90;;;;;;5033638;28;20204;-82
2021/12/29 03:31:21;;;;;;;60.33;32.63;;;7.00;99.90;;;;;;5031810;28;20212;-82
2021/12/29 03:33:49;;;;;;;65.57;34.03;;;7.10;99.90;;;;;;5032277;28;20200;-82
2021/12/29 03:36:17;;;;;;;54.58;31.20;;;7.20;99.90;;;;;;5020197;28;20239;-82
2021/12/29 03:38:44;;;;;;;65.57;31.25;;;7.20;99.90;;;;;;5019557;28;20223;-82
2021/12/29 03:41:13;;;;;;;48.85;29.95;;;7.10;99.90;;;;;;5019796;28;20224;-82
2021/12/29 03:43:42;;;;;;;56.33;31.48;;;7.10;99.90;;;;;;5030837;28;20215;-82
2021/12/29 03:46:10;;;;;;;73.00;34.72;;;7.10;99.90;;;;;;5033967;28;20244;-82
2021/12/29 03:48:41;;;;;;;74.28;34.58;;;7.10;99.90;;;;;;5033891;28;20216;-82
2021/12/29 03:51:08;;;;;;;78.00;35.60;;;7.00;99.90;;;;;;5031177;28;20282;-82
2021/12/29 03:53:35;;;;;;;64.95;34.10;;;7.10;99.90;;;;;;5022763;28;20275;-83
2021/12/29 03:56:03;;;;;;;66.18;33.42;;;7.00;99.90;;;;;;5020672;28;20235;-82
2021/12/29 03:58:30;;;;;;;69.50;31.90;;;7.10;99.90;;;;;;5019840;28;20210;-82
2021/12/29 04:01:01;;;;;;;43.30;27.92;;;7.10;99.90;;;;;;5020549;28;20287;-83
2021/12/29 04:03:28;;;;;;;62.90;34.05;;;7.20;99.90;;;;;;5020449;28;20201;-82
2021/12/29 04:05:56;;;;;;;71.68;35.83;;;7.20;99.90;;;;;;5019685;28;20546;-83
2021/12/29 04:08:23;;;;;;;70.80;33.17;;;7.30;99.90;;;;;;5019511;28;20258;-83
2021/12/29 04:10:50;;;;;;;62.22;30.95;;;7.30;99.90;;;;;;5019687;28;20268;-83
2021/12/29 04:13:17;;;;;;;48.53;29.35;;;7.20;99.90;;;;;;5018967;28;20279;-83
2021/12/29 04:15:44;;;;;;;55.83;30.67;;;7.20;99.90;;;;;;5020030;28;20239;-83
2021/12/29 04:18:25;;;;;;;53.55;30.98;;;7.30;99.90;;;;;;5027023;28;20317;-83
2021/12/29 04:20:57;;;;;;;58.63;32.20;;;7.40;99.90;;;;;;5041011;28;20254;-82
2021/12/29 04:23:28;;;;;;;56.80;31.00;;;7.40;99.90;;;;;;5031782;28;20215;-83
2021/12/29 04:25:57;;;;;;;49.15;29.73;;;7.40;99.90;;;;;;5019809;28;20235;-83
2021/12/29 04:28:26;;;;;;;54.53;29.95;;;7.40;99.90;;;;;;5022424;28;20208;-83
2021/12/29 04:30:55;;;;;;;63.45;29.15;;;7.30;99.90;;;;;;5022148;28;20200;-83
2021/12/29 04:33:22;;;;;;;40.22;25.40;;;7.30;99.90;;;;;;5021807;28;20212;-83
2021/12/29 04:35:50;;;;;;;56.08;30.60;;;7.40;99.90;;;;;;5021486;28;20696;-83
2021/12/29 04:38:17;;;;;;;73.05;34.35;;;7.40;99.90;;;;;;5020358;28;20243;-82
2021/12/29 04:40:45;;;;;;;72.10;32.58;;;7.40;99.90;;;;;;5024856;28;20205;-82
2021/12/29 04:43:12;;;;;;;77.72;31.42;;;7.40;99.90;;;;;;5033137;28;20322;-83
2021/12/29 04:45:39;;;;;;;102.15;36.65;;;7.40;99.90;;;;;;5024366;28;20225;-82
2021/12/29 04:48:12;;;;;;;40.47;25.73;;;7.40;99.90;;;;;;5028366;28;20219;-82
2021/12/29 04:50:40;;;;;;;48.22;31.23;;;7.40;99.90;;;;;;5019060;28;20291;-82
2021/12/29 04:53:09;;;;;;;53.25;29.45;;;7.40;99.90;;;;;;5020270;28;20287;-80
2021/12/29 04:55:36;;;;;;;45.70;27.50;;;7.40;99.90;;;;;;5019026;28;20247;-81
2021/12/29 04:58:05;;;;;;;63.75;31.63;;;7.50;99.90;;;;;;5025735;28;20633;-80
2021/12/29 05:00:32;;;;;;;63.25;31.23;;;7.50;99.90;;;;;;5038279;28;20248;-81
2021/12/29 05:03:00;;;;;;;59.90;33.08;;;7.60;99.90;;;;;;5038203;28;20262;-82
2021/12/29 05:05:41;;;;;;;86.82;32.58;;;7.60;99.90;;;;;;5030883;28;20224;-82
2021/12/29 05:10:53;;;;;;;76.15;34.80;;;7.60;99.90;;;;;;5029704;28;20207;-81
2021/12/29 05:13:22;;;;;;;77.13;35.88;;;7.50;99.90;;;;;;5031574;28;20277;-82
2021/12/29 05:15:49;;;;;;;85.57;37.60;;;7.50;99.90;;;;;;5022915;28;20330;-82
2021/12/29 05:18:16;;;;;;;116.55;40.85;;;7.40;99.90;;;;;;5023464;28;20280;-82
2021/12/29 05:20:43;;;;;;;58.58;30.45;;;7.40;99.90;;;;;;5022162;28;20295;-82
2021/12/29 05:23:11;;;;;;;140.30;45.05;;;7.30;99.90;;;;;;5021850;28;20243;-82
2021/12/29 05:25:38;;;;;;;96.40;38.03;;;7.30;99.90;;;;;;5027085;28;20231;-81
2021/12/29 05:28:05;;;;;;;76.38;33.50;;;7.20;99.90;;;;;;5022713;28;20284;-81
2021/12/29 05:30:33;;;;;;;105.50;40.60;;;7.30;99.90;;;;;;5022070;28;20208;-82
2021/12/29 05:33:00;;;;;;;117.28;42.28;;;7.30;99.90;;;;;;5021902;28;20204;-82
2021/12/29 05:35:27;;;;;;;104.95;39.45;;;7.40;99.90;;;;;;5020949;28;20228;-81
2021/12/29 05:37:54;;;;;;;148.70;47.00;;;7.40;99.90;;;;;;5022962;28;20227;-81
2021/12/29 05:40:21;;;;;;;94.95;37.15;;;7.30;99.90;;;;;;5036719;28;20641;-82
2021/12/29 05:42:48;;;;;;;60.47;31.80;;;7.20;99.90;;;;;;5030243;28;20319;-82
2021/12/29 05:45:16;;;;;;;90.30;40.35;;;7.30;99.90;;;;;;5026885;28;20315;-82
2021/12/29 05:47:45;;;;;;;114.72;39.42;;;7.30;99.90;;;;;;5022385;28;20630;-82
2021/12/29 05:50:14;;;;;;;55.03;31.05;;;7.30;99.90;;;;;;5022260;28;20633;-83
2021/12/29 05:52:41;;;;;;;110.68;41.70;;;7.40;99.90;;;;;;5021550;28;20204;-82
2021/12/29 05:55:09;;;;;;;138.60;47.47;;;7.40;99.90;;;;;;5021357;28;20639;-81
2021/12/29 05:57:37;;;;;;;157.88;45.88;;;7.40;99.90;;;;;;5024077;28;20276;-83
2021/12/29 06:00:05;;;;;;;69.40;32.42;;;7.20;99.90;;;;;;5027301;28;20200;-83
2021/12/29 06:02:32;;;;;;;135.38;40.80;;;7.30;99.90;;;;;;5020421;28;20221;-81
2021/12/29 06:05:00;;;;;;;98.55;38.55;;;7.20;99.90;;;;;;5019363;28;20729;-83
2021/12/29 06:07:27;;;;;;;72.45;32.92;;;7.20;99.90;;;;;;5019493;28;20243;-81
2021/12/29 06:09:53;;;;;;;156.75;44.50;;;7.20;99.90;;;;;;5018539;28;20227;-83
2021/12/29 06:12:20;;;;;;;50.53;28.38;;;7.20;99.90;;;;;;5017813;28;20236;-83
2021/12/29 06:14:47;;;;;;;75.05;32.00;;;7.20;99.90;;;;;;5022415;28;20220;-83
2021/12/29 06:17:14;;;;;;;66.97;31.38;;;7.10;99.90;;;;;;5021912;28;20204;-83
2021/12/29 06:19:41;;;;;;;70.65;31.40;;;7.20;99.90;;;;;;5009433;28;20191;-83
2021/12/29 06:22:10;;;;;;;76.10;32.03;;;7.20;99.90;;;;;;5028561;28;20287;-81
2021/12/29 06:24:38;;;;;;;128.35;40.60;;;7.20;99.90;;;;;;5030214;28;20252;-81
2021/12/29 06:27:05;;;;;;;116.60;39.97;;;7.20;99.90;;;;;;5025075;28;20427;-81
2021/12/29 06:29:32;;;;;;;110.15;40.83;;;7.20;99.90;;;;;;5020455;28;20295;-81
2021/12/29 06:32:00;;;;;;;147.50;43.78;;;7.20;99.90;;;;;;5027459;28;20212;-82
2021/12/29 06:34:27;;;;;;;104.13;37.75;;;7.20;99.90;;;;;;5034849;28;20251;-82
2021/12/29 06:36:54;;;;;;;102.82;36.10;;;7.20;99.90;;;;;;5020941;28;20279;-82
2021/12/29 06:39:22;;;;;;;79.93;33.78;;;7.20;99.90;;;;;;5030235;28;20250;-81
2021/12/29 06:41:49;;;;;;;83.45;34.28;;;7.20;99.90;;;;;;5043025;28;20236;-81
2021/12/29 06:44:16;;;;;;;71.10;29.15;;;7.20;99.90;;;;;;5038315;28;20226;-81
2021/12/29 06:46:43;;;;;;;87.97;33.33;;;7.20;99.90;;;;;;5038802;28;20188;-82
2021/12/29 06:49:10;;;;;;;55.08;29.58;;;7.20;99.90;;;;;;5044943;28;20196;-82
2021/12/29 06:51:36;;;;;;;67.38;29.05;;;7.10;99.90;;;;;;5046694;28;20232;-82
2021/12/29 06:54:03;;;;;;;44.25;24.95;;;7.20;99.90;;;;;;5040288;28;20220;-82
2021/12/29 06:56:32;;;;;;;84.40;32.72;;;7.20;99.90;;;;;;5039947;28;20188;-82
2021/12/29 06:58:59;;;;;;;108.78;37.53;;;7.20;99.90;;;;;;5038325;28;20185;-81
2021/12/29 07:01:25;;;;;;;87.22;32.92;;;7.30;99.90;;;;;;5038572;28;20240;-81
2021/12/29 07:03:52;;;;;;;49.88;26.23;;;7.30;99.90;;;;;;5038376;28;20212;-82
2021/12/29 07:06:19;;;;;;;47.50;23.67;;;7.40;99.90;;;;;;5038273;28;20235;-83
2021/12/29 07:08:46;;;;;;;41.85;23.65;;;7.50;99.90;;;;;;5038578;28;20197;-82
2021/12/29 07:11:13;;;;;;;53.42;27.02;;;7.40;99.90;;;;;;5038030;28;20211;-81
2021/12/29 07:13:42;;;;;;;47.38;26.52;;;7.40;99.90;;;;;;5037937;28;20219;-82
2021/12/29 07:16:09;;;;;;;42.33;22.35;;;7.50;99.90;;;;;;5037611;28;20208;-82
2021/12/29 07:18:36;;;;;;;56.08;27.30;;;7.50;99.90;;;;;;5038183;28;20204;-82
2021/12/29 07:21:03;;;;;;;51.75;23.20;;;7.40;99.90;;;;;;5038200;28;20260;-82
2021/12/29 07:23:30;;;;;;;57.80;26.10;;;7.40;99.90;;;;;;5045185;28;20235;-82
2021/12/29 07:25:57;;;;;;;32.40;19.52;;;7.50;99.90;;;;;;5030281;28;20259;-82
2021/12/29 07:28:24;;;;;;;73.32;28.13;;;7.50;99.90;;;;;;5030221;28;20304;-82
2021/12/29 07:30:58;;;;;;;67.05;27.02;;;7.50;99.90;;;;;;5030061;28;20205;-82
2021/12/29 07:33:25;;;;;;;45.90;23.30;;;7.50;99.90;;;;;;5038424;28;20208;-81
2021/12/29 07:35:52;;;;;;;68.32;25.45;;;7.50;99.90;;;;;;5037250;28;20291;-81
2021/12/29 07:38:18;;;;;;;51.55;26.45;;;7.50;99.90;;;;;;5029737;28;20239;-82
2021/12/29 07:40:46;;;;;;;77.13;26.98;;;7.50;99.90;;;;;;5029559;28;20260;-82
2021/12/29 07:43:12;;;;;;;48.42;23.67;;;7.40;99.90;;;;;;5029144;28;20247;-81
2021/12/29 07:45:42;;;;;;;57.40;25.67;;;7.50;99.90;;;;;;5030330;28;20220;-81
2021/12/29 07:48:10;;;;;;;54.75;24.25;;;7.50;99.90;;;;;;5030847;28;20215;-82
2021/12/29 07:50:38;;;;;;;42.40;22.58;;;7.60;99.90;;;;;;5030017;28;20228;-82
2021/12/29 07:53:06;;;;;;;56.00;23.92;;;7.60;99.90;;;;;;5030563;28;20239;-81
2021/12/29 07:55:33;;;;;;;55.67;24.85;;;7.60;99.90;;;;;;5034685;28;20255;-81
2021/12/29 07:58:00;;;;;;;40.45;20.35;;;7.60;99.90;;;;;;5033844;28;20231;-81
2021/12/29 08:00:27;;;;;;;50.95;20.00;;;7.60;99.90;;;;;;5028930;28;20219;-81
2021/12/29 08:02:55;;;;;;;52.40;20.38;;;7.60;99.90;;;;;;5029112;28;20224;-83
2021/12/29 08:05:23;;;;;;;42.80;19.67;;;7.60;99.90;;;;;;5028988;28;20231;-82
2021/12/29 08:07:50;;;;;;;56.20;21.65;;;7.60;99.90;;;;;;5026480;28;20207;-83
2021/12/29 08:10:17;;;;;;;49.92;22.60;;;7.60;99.90;;;;;;5025729;28;20228;-81
2021/12/29 08:12:44;;;;;;;53.95;22.20;;;7.60;99.90;;;;;;5030128;28;20211;-82
2021/12/29 08:15:11;;;;;;;49.33;21.92;;;7.70;99.90;;;;;;5029169;28;20228;-82
2021/12/29 08:17:39;;;;;;;47.78;19.67;;;7.70;99.90;;;;;;5023783;28;20220;-82
2021/12/29 08:20:08;;;;;;;41.15;22.65;;;7.80;99.90;;;;;;5023267;28;20231;-82
2021/12/29 08:22:36;;;;;;;35.97;17.00;;;7.80;99.90;;;;;;5028338;28;20227;-82
2021/12/29 08:25:03;;;;;;;30.95;14.82;;;7.90;99.90;;;;;;5031951;28;20251;-82
2021/12/29 08:27:30;;;;;;;24.60;13.75;;;8.30;99.90;;;;;;5030185;28;20288;-82
2021/12/29 08:29:57;;;;;;;29.67;16.42;;;8.60;99.90;;;;;;5030762;28;20276;-82
2021/12/29 08:32:24;;;;;;;30.73;17.38;;;8.90;99.90;;;;;;5029371;28;20208;-82
2021/12/29 08:34:51;;;;;;;30.80;17.02;;;9.00;99.90;;;;;;5031430;28;20256;-83
2021/12/29 08:37:18;;;;;;;27.40;15.65;;;8.90;99.90;;;;;;5030648;28;20194;-82
2021/12/29 08:39:46;;;;;;;32.20;18.42;;;8.90;99.90;;;;;;5033194;28;20265;-82
2021/12/29 08:42:13;;;;;;;26.85;14.52;;;9.00;99.90;;;;;;5033295;28;20296;-81
2021/12/29 08:44:40;;;;;;;22.80;13.52;;;8.80;99.90;;;;;;5041795;28;20282;-81
2021/12/29 08:47:08;;;;;;;34.40;18.00;;;8.80;99.90;;;;;;5025042;28;20323;-82
2021/12/29 08:49:35;;;;;;;34.58;18.58;;;8.70;99.90;;;;;;5025157;28;20225;-81
2021/12/29 08:52:02;;;;;;;39.00;17.60;;;8.80;99.90;;;;;;5035552;28;20639;-82
2021/12/29 08:54:29;;;;;;;58.67;18.58;;;8.70;99.90;;;;;;5037687;28;20225;-82
2021/12/29 08:56:58;;;;;;;46.85;19.52;;;8.60;99.90;;;;;;5037110;28;20239;-82
2021/12/29 08:59:24;;;;;;;28.73;14.65;;;8.40;99.90;;;;;;5036706;28;20268;-82
2021/12/29 09:01:51;;;;;;;41.70;20.75;;;8.50;99.90;;;;;;5035152;28;20265;-83
2021/12/29 09:04:18;;;;;;;53.03;21.80;;;8.40;99.90;;;;;;5033932;28;20287;-83
2021/12/29 09:06:45;;;;;;;57.60;21.95;;;8.30;99.90;;;;;;5025941;28;20200;-82
2021/12/29 09:09:12;;;;;;;40.55;19.00;;;8.30;99.90;;;;;;5026158;28;20201;-82
2021/12/29 09:11:39;;;;;;;57.88;19.13;;;8.30;99.90;;;;;;5026491;28;20204;-82
2021/12/29 09:14:08;;;;;;;40.78;16.50;;;8.20;99.90;;;;;;5024915;28;20291;-82
2021/12/29 09:16:35;;;;;;;51.85;20.80;;;8.20;99.90;;;;;;5024812;28;20450;-82
2021/12/29 09:19:03;;;;;;;48.25;18.08;;;8.30;99.90;;;;;;5036272;28;20228;-83
2021/12/29 09:21:31;;;;;;;35.65;14.85;;;8.40;99.90;;;;;;5022608;28;20244;-83
2021/12/29 09:23:58;;;;;;;27.58;15.00;;;8.40;99.90;;;;;;5016760;28;20697;-83
2021/12/29 09:26:25;;;;;;;34.30;16.52;;;8.60;99.90;;;;;;5023915;28;20201;-82
2021/12/29 09:28:52;;;;;;;30.77;12.50;;;8.60;99.90;;;;;;5027241;28;20200;-83
2021/12/29 09:31:20;;;;;;;22.65;14.10;;;8.70;99.90;;;;;;5027190;28;20292;-82
2021/12/29 09:33:47;;;;;;;33.03;13.50;;;8.70;99.90;;;;;;5034850;28;20659;-84
2021/12/29 09:36:15;;;;;;;31.88;13.43;;;8.60;99.90;;;;;;5028832;28;20201;-82
2021/12/29 09:38:42;;;;;;;21.90;10.90;;;8.70;99.90;;;;;;5027549;28;20207;-82
2021/12/29 09:41:11;;;;;;;19.48;11.13;;;8.70;99.90;;;;;;5026482;28;20627;-83
2021/12/29 09:43:39;;;;;;;30.63;12.15;;;8.70;99.90;;;;;;5023493;28;20223;-83
2021/12/29 09:46:07;;;;;;;41.25;12.20;;;8.60;99.90;;;;;;5033457;28;20315;-82
2021/12/29 09:48:35;;;;;;;28.73;13.50;;;8.30;99.90;;;;;;5024938;28;20545;-82
2021/12/29 09:51:04;;;;;;;36.78;12.68;;;8.40;99.90;;;;;;5022907;28;20259;-82
2021/12/29 09:53:31;;;;;;;33.13;13.30;;;8.40;99.90;;;;;;5023983;28;20287;-82
2021/12/29 09:55:58;;;;;;;45.97;14.10;;;8.40;99.90;;;;;;5021790;28;20296;-82
2021/12/29 09:58:24;;;;;;;43.55;15.38;;;8.40;99.90;;;;;;5022977;28;20261;-82
2021/12/29 10:00:56;;;;;;;42.97;15.88;;;8.30;99.90;;;;;;5030423;28;20588;-82
2021/12/29 10:03:24;;;;;;;36.75;15.40;;;8.40;99.90;;;;;;5028882;28;20220;-82
2021/12/29 10:05:54;;;;;;;36.25;15.23;;;8.40;99.90;;;;;;5027717;28;20231;-82
2021/12/29 10:08:26;;;;;;;33.33;13.52;;;8.60;99.90;;;;;;5029961;28;20654;-82
2021/12/29 10:10:55;;;;;;;33.95;14.90;;;8.60;99.90;;;;;;5022177;28;20292;-83
2021/12/29 10:13:23;;;;;;;37.08;18.38;;;8.60;99.90;;;;;;5021879;28;20541;-83
2021/12/29 10:15:56;;;;;;;35.58;15.25;;;8.70;99.90;;;;;;5019889;28;20315;-82
2021/12/29 10:18:25;;;;;;;36.72;15.80;;;8.80;99.90;;;;;;5025566;28;20246;-82
2021/12/29 10:20:57;;;;;;;34.05;14.32;;;8.90;99.90;;;;;;5023880;28;20239;-82
2021/12/29 10:23:27;;;;;;;38.88;15.27;;;9.00;99.90;;;;;;5022720;28;20224;-82
2021/12/29 10:25:56;;;;;;;37.75;15.27;;;9.10;99.90;;;;;;5021602;28;20229;-81
2021/12/29 10:28:26;;;;;;;39.35;13.02;;;8.90;99.90;;;;;;5022254;28;20307;-81
2021/12/29 10:30:59;;;;;;;38.95;16.08;;;8.90;99.90;;;;;;5014943;28;20208;-82
2021/12/29 10:33:31;;;;;;;24.83;11.27;;;8.90;99.90;;;;;;5022462;28;20830;-82
2021/12/29 10:36:20;;;;;;;36.50;16.10;;;8.80;99.90;;;;;;5021752;28;20343;-82
2021/12/29 10:38:49;;;;;;;36.10;14.10;;;8.80;99.90;;;;;;5021447;28;20193;-82
2021/12/29 10:41:16;;;;;;;33.03;12.98;;;8.60;99.90;;;;;;5021114;28;20197;-82
2021/12/29 10:43:53;;;;;;;39.30;15.38;;;8.70;99.90;;;;;;5034972;28;20260;-83
2021/12/29 10:46:21;;;;;;;40.20;16.73;;;8.60;99.90;;;;;;5020633;28;20201;-82
2021/12/29 10:48:50;;;;;;;47.97;17.15;;;8.60;99.90;;;;;;5022737;28;20216;-82
2021/12/29 10:51:20;;;;;;;38.65;15.18;;;8.50;99.90;;;;;;5032468;28;20201;-83
2021/12/29 10:53:46;;;;;;;44.88;17.20;;;8.50;99.90;;;;;;5022994;28;20180;-83
2021/12/29 10:56:22;;;;;;;48.20;19.23;;;8.60;99.90;;;;;;5022299;28;20297;-81
2021/12/29 10:58:50;;;;;;;51.42;18.85;;;8.60;99.90;;;;;;5022543;28;20208;-82
2021/12/29 11:01:18;;;;;;;32.30;17.85;;;8.50;99.90;;;;;;5018854;28;20205;-82
2021/12/29 11:03:48;;;;;;;49.67;19.27;;;8.60;99.90;;;;;;5020470;28;20702;-84
2021/12/29 11:06:21;;;;;;;53.33;17.60;;;8.60;99.90;;;;;;5021214;28;20228;-83
2021/12/29 11:08:51;;;;;;;47.25;19.70;;;8.60;99.90;;;;;;5027811;28;20203;-82
2021/12/29 11:11:20;;;;;;;52.08;19.65;;;8.60;99.90;;;;;;5032541;28;20221;-83
2021/12/29 11:13:47;;;;;;;48.58;18.30;;;8.50;99.90;;;;;;5025827;28;20205;-81
2021/12/29 11:16:14;;;;;;;48.85;21.48;;;8.50;99.90;;;;;;5036970;28;20232;-81
2021/12/29 11:18:43;;;;;;;40.58;18.98;;;8.50;99.90;;;;;;5021552;28;20232;-82
2021/12/29 11:21:11;;;;;;;53.53;21.30;;;8.60;99.90;;;;;;5026941;28;20201;-82
2021/12/29 11:23:41;;;;;;;48.97;20.65;;;8.70;99.90;;;;;;5038266;28;20706;-82
2021/12/29 11:26:12;;;;;;;49.40;22.50;;;8.50;99.90;;;;;;5024179;28;20240;-83
2021/12/29 11:28:40;;;;;;;47.28;19.52;;;8.50;99.90;;;;;;5023870;28;20201;-82
2021/12/29 11:31:09;;;;;;;43.95;18.80;;;8.60;99.90;;;;;;5022741;28;20216;-82
2021/12/29 11:33:36;;;;;;;48.45;20.80;;;8.50;99.90;;;;;;5023657;28;20575;-82
2021/12/29 11:36:06;;;;;;;40.22;18.95;;;8.50;99.90;;;;;;5027064;28;20315;-82
2021/12/29 11:38:35;;;;;;;44.38;19.33;;;8.60;99.90;;;;;;5030599;28;20204;-82
2021/12/29 11:41:05;;;;;;;35.70;17.38;;;8.60;99.90;;;;;;5027447;28;20201;-81
2021/12/29 11:43:32;;;;;;;44.50;19.20;;;8.60;99.90;;;;;;5028186;28;20221;-83
2021/12/29 11:46:00;;;;;;;43.53;19.15;;;8.70;99.90;;;;;;5028317;28;20299;-83
2021/12/29 11:48:27;;;;;;;46.28;21.05;;;8.60;99.90;;;;;;5027048;28;20219;-82
2021/12/29 11:50:57;;;;;;;44.78;19.45;;;8.70;99.90;;;;;;5027769;28;20620;-82
2021/12/29 11:53:44;;;;;;;40.67;17.02;;;8.70;99.90;;;;;;5025908;28;20232;-83
2021/12/29 11:56:17;;;;;;;36.90;19.10;;;8.70;99.90;;;;;;5028902;28;20315;-82
2021/12/29 11:58:45;;;;;;;42.10;19.15;;;8.80;99.90;;;;;;5022012;28;20205;-82
2021/12/29 12:01:14;;;;;;;52.55;22.25;;;8.80;99.90;;;;;;5025947;28;20224;-83
2021/12/29 12:03:50;;;;;;;45.13;21.48;;;8.80;99.90;;;;;;5021640;28;20252;-82
2021/12/29 12:06:22;;;;;;;49.15;20.40;;;8.90;99.90;;;;;;5023863;28;20197;-82
2021/12/29 12:09:00;;;;;;;54.00;21.27;;;8.90;99.90;;;;;;5027925;28;20217;-82
2021/12/29 12:11:29;;;;;;;49.05;20.98;;;8.90;99.90;;;;;;5025458;28;20224;-82
2021/12/29 12:13:56;;;;;;;41.95;19.75;;;8.90;99.90;;;;;;5029564;28;20660;-82
2021/12/29 12:16:26;;;;;;;42.72;19.23;;;9.00;99.90;;;;;;5033794;28;20207;-82
2021/12/29 12:18:55;;;;;;;39.92;18.25;;;9.10;99.90;;;;;;5023930;28;20205;-82
2021/12/29 12:21:29;;;;;;;43.13;21.35;;;9.00;99.90;;;;;;5024198;28;20219;-82
2021/12/29 12:24:10;;;;;;;34.38;18.65;;;9.10;99.90;;;;;;5035468;28;20731;-82
2021/12/29 12:26:52;;;;;;;42.38;19.98;;;9.10;99.90;;;;;;5022884;28;20595;-82
2021/12/29 12:29:21;;;;;;;46.35;21.02;;;9.00;99.90;;;;;;5022177;28;20264;-83
2021/12/29 12:32:07;;;;;;;46.67;19.98;;;9.00;99.90;;;;;;5025721;28;20724;-82
2021/12/29 12:34:35;;;;;;;55.22;19.73;;;9.10;99.90;;;;;;5023815;28;20221;-82
2021/12/29 12:37:14;;;;;;;43.97;18.80;;;9.20;99.90;;;;;;5022471;28;20219;-82
2021/12/29 12:39:52;;;;;;;52.33;19.65;;;9.10;99.90;;;;;;5018764;28;20207;-82
2021/12/29 12:42:21;;;;;;;43.30;19.45;;;9.10;99.90;;;;;;5039693;28;20227;-82
2021/12/29 12:44:48;;;;;;;44.17;18.67;;;9.10;99.90;;;;;;5045731;28;20251;-82